WetterOnline ( https://www.wetteronline.de )

Wetter aktuell Salzkotten

Aktuelles Wetter: Bad Lippspringe (158m)

6-stündlich | Neueste Meldungen
Ortszeit Temperatur Wetter
Di, 05.07. 8:00 14.6° C leicht bewölkt
Di, 05.07. 2:00 11.9° C wolkenlos
Mo, 04.07. 20:00 21.6° C leicht bewölkt
Mo, 04.07. 14:00 21.8° C leicht bewölkt
Mo, 04.07. 8:00 14.2° C bedeckt
Mo, 04.07. 2:00 13.1° C wolkenlos
So, 03.07. 20:00 23.9° C wolkig
So, 03.07. 14:00 26.4° C leicht bewölkt
Ortszeit Temperatur Wetter
Di, 05.07. 8:30 15.5° C bewölkt
Di, 05.07. 8:20 15.5° C bewölkt
Di, 05.07. 8:10 15.1° C wolkig
Di, 05.07. 8:00 14.6° C leicht bewölkt
Di, 05.07. 7:50 14.6° C leicht bewölkt
Di, 05.07. 7:40 14.4° C wolkig
Di, 05.07. 7:30 13.9° C wolkig
Di, 05.07. 7:00 12.2° C bewölkt
Di, 05.07. 6:30 10.9° C wolkig
Di, 05.07. 6:00 10.3° C wolkig
Di, 05.07. 5:30 9.5° C fast wolkenlos
Ortszeit Relative Feuchte Sichtweite
Di, 05.07. 8:00 77% 45 km
Di, 05.07. 2:00 90% 50 km
Mo, 04.07. 20:00 44% 65 km
Mo, 04.07. 14:00 50% 65 km
Mo, 04.07. 8:00 79% 55 km
Mo, 04.07. 2:00 87% 55 km
So, 03.07. 20:00 45% >70 km
So, 03.07. 14:00 39% 50 km
Ortszeit Relative Feuchte Sichtweite
Di, 05.07. 8:30 75% 50 km
Di, 05.07. 8:20 75% -
Di, 05.07. 8:10 75% -
Di, 05.07. 8:00 77% 45 km
Di, 05.07. 7:50 77% -
Di, 05.07. 7:40 76% -
Di, 05.07. 7:30 85% 50 km
Di, 05.07. 7:00 91% 35 km
Di, 05.07. 6:30 93% 50 km
Di, 05.07. 6:00 96% 30 km
Di, 05.07. 5:30 95% 50 km
Ortszeit Niederschlagsmenge Niederschlagsart
Di, 05.07. 8:00 0.0 l/m2 in 12 Std. -
Di, 05.07. 2:00 0.0 l/m2 in 6 Std. -
Mo, 04.07. 20:00 0.0 l/m2 in 12 Std. -
Mo, 04.07. 14:00 0.0 l/m2 in 6 Std. -
Mo, 04.07. 8:00 0.0 l/m2 in 12 Std. -
Mo, 04.07. 2:00 0.0 l/m2 in 6 Std. -
So, 03.07. 20:00 0.0 l/m2 in 12 Std. -
So, 03.07. 14:00 0.0 l/m2 in 6 Std. -
Ortszeit Niederschlagsmenge Niederschlagsart
Di, 05.07. 8:30 0.0 l/m2 in 1 Std. -
Di, 05.07. 8:20 keine Meldung -
Di, 05.07. 8:10 keine Meldung -
Di, 05.07. 8:00 0.0 l/m2 in 1 Std. -
Di, 05.07. 7:50 keine Meldung -
Di, 05.07. 7:40 keine Meldung -
Di, 05.07. 7:30 0.0 l/m2 in 1 Std. -
Di, 05.07. 7:00 0.0 l/m2 in 1 Std. -
Di, 05.07. 6:30 0.0 l/m2 in 1 Std. -
Di, 05.07. 6:00 0.0 l/m2 in 1 Std. -
Di, 05.07. 5:30 0.0 l/m2 in 1 Std. -
Ortszeit Stärke Spitze Richtung
km/h Bft. km/h Grad Sektor
Di, 05.07. 8:00 4 1 7 220° SW
Di, 05.07. 2:00 6 1 19 170° S
Mo, 04.07. 20:00 11 2 32 290° W
Mo, 04.07. 14:00 15 3 28 300° NW
Mo, 04.07. 8:00 6 1 9 210° SW
Mo, 04.07. 2:00 4 1 36 80° O
So, 03.07. 20:00 20 4 37 310° NW
So, 03.07. 14:00 7 2 29 320° NW
Ortszeit Stärke Spitze Richtung
km/h Bft. km/h Grad Sektor
Di, 05.07. 8:30 2 1 6 300° NW
Di, 05.07. 8:20 2 1 - 300° NW
Di, 05.07. 8:10 4 1 - 300° NW
Di, 05.07. 8:00 4 1 7 220° SW
Di, 05.07. 7:50 4 1 - 220° SW
Di, 05.07. 7:40 4 1 - 210° SW
Di, 05.07. 7:30 2 1 4 90° O
Di, 05.07. 7:00 2 1 6 90° O
Di, 05.07. 6:30 4 1 4 210° SW
Di, 05.07. 6:00 4 1 7 150° SO
Di, 05.07. 5:30 4 1 7 120° SO
Ortszeit Untergrenze Bedeckung Gattung
total tief tief mittel hoch
Di, 05.07. 8:00 1500 m 4/8 4/8 - - -
Di, 05.07. 2:00 - 0/8 0/8 - - -
Mo, 04.07. 20:00 2100 m 2/8 2/8 - - -
Mo, 04.07. 14:00 1500 m 2/8 2/8 - - -
Mo, 04.07. 8:00 420 m 8/8 8/8 - - -
Mo, 04.07. 2:00 - 0/8 0/8 - - -
So, 03.07. 20:00 1800 m 6/8 6/8 - - -
So, 03.07. 14:00 1800 m 3/8 3/8 - - -
Ortszeit Bedeckungsgrad in Achtel und Wolkenuntergrenze
Di, 05.07. 8:30 2(1440m) 7(1800m)
Di, 05.07. 8:20 2(1440m) 7(1800m)
Di, 05.07. 8:10 6
Di, 05.07. 8:00 3(1500m) 4(1800m)
Di, 05.07. 7:50 3(1500m) 4(1800m)
Di, 05.07. 7:40 5
Di, 05.07. 7:30 5(1800m)
Di, 05.07. 7:00 2(1500m) 7(1800m)
Di, 05.07. 6:30 3(1500m) 5(1800m)
Di, 05.07. 6:00 6(1500m) 6(1800m)
Di, 05.07. 5:30 1(1500m)
Ortszeit Luftdruck NN (hPa) Tendenz (hPa in 3 Std.)
Di, 05.07. 8:00 1022 + 0,8
Di, 05.07. 2:00 1021 + 0,6
Mo, 04.07. 20:00 1018 - 0,6
Mo, 04.07. 14:00 1020 - 0,8
Mo, 04.07. 8:00 1021 + 1,4
Mo, 04.07. 2:00 1020 + 0,8
So, 03.07. 20:00 1017 + 0,4
So, 03.07. 14:00 1016 - 0,6
Ortszeit Luftdruck NN (hPa) Tendenz (hPa in 3 Std.)
Di, 05.07. 8:30 1022 + 0,9
Di, 05.07. 8:20 1022 keine Meldung
Di, 05.07. 8:10 1022 keine Meldung
Di, 05.07. 8:00 1022 + 0,8
Di, 05.07. 7:50 1022 keine Meldung
Di, 05.07. 7:40 1022 keine Meldung
Di, 05.07. 7:30 1022 + 0,4
Di, 05.07. 7:00 1022 + 0,6
Di, 05.07. 6:30 1022 + 0,5
Di, 05.07. 6:00 1022 + 0,4
Di, 05.07. 5:30 1022 + 0,5
Ortszeit Schneehöhe (cm)
Di, 05.07. 8:00 0
Di, 05.07. 2:00 0
Mo, 04.07. 20:00 0
Mo, 04.07. 14:00 0
Mo, 04.07. 8:00 0
Mo, 04.07. 2:00 0
So, 03.07. 20:00 0
So, 03.07. 14:00 0
Ortszeit Schneehöhe (cm)
Di, 05.07. 8:30 0
Di, 05.07. 8:20 0
Di, 05.07. 8:10 0
Di, 05.07. 8:00 0
Di, 05.07. 7:50 0
Di, 05.07. 7:40 0
Di, 05.07. 7:30 0
Di, 05.07. 7:00 0
Di, 05.07. 6:30 0
Di, 05.07. 6:00 0
Di, 05.07. 5:30 0
Link zu dieser Seite / Seite empfehlen

Das Wetter in ...